createdAt,value
2023-08-15T00:01:02.981Z,5.40
2023-08-15T00:03:29.799Z,5.00
2023-08-15T00:05:56.525Z,5.40
2023-08-15T00:08:23.219Z,4.70
2023-08-15T00:10:49.993Z,5.53
2023-08-15T00:13:16.772Z,5.17
2023-08-15T00:15:43.849Z,5.30
2023-08-15T00:18:10.572Z,5.30
2023-08-15T00:20:37.270Z,6.03
2023-08-15T00:23:04.440Z,5.27
2023-08-15T00:25:31.917Z,5.10
2023-08-15T00:27:58.668Z,5.20
2023-08-15T00:30:25.403Z,5.00
2023-08-15T00:32:52.355Z,4.97
2023-08-15T00:35:19.135Z,4.80
2023-08-15T00:37:45.834Z,4.93
2023-08-15T00:40:12.550Z,5.27
2023-08-15T00:42:39.300Z,4.86
2023-08-15T00:45:07.338Z,5.10
2023-08-15T00:47:34.610Z,4.80
2023-08-15T00:50:01.486Z,5.30
2023-08-15T00:52:28.448Z,6.03
2023-08-15T00:54:55.589Z,6.27
2023-08-15T00:57:22.952Z,6.17
2023-08-15T00:59:50.030Z,7.17
2023-08-15T01:02:16.861Z,7.60
2023-08-15T01:04:43.786Z,7.60
2023-08-15T01:07:11.309Z,7.47
2023-08-15T01:09:38.564Z,6.50
2023-08-15T01:12:28.226Z,7.10
2023-08-15T01:15:16.847Z,5.47
2023-08-15T01:17:55.589Z,6.77
2023-08-15T01:20:27.733Z,5.70
2023-08-15T01:22:55.034Z,6.20
2023-08-15T01:25:21.764Z,5.87
2023-08-15T01:27:48.512Z,6.37
2023-08-15T01:30:15.902Z,7.17
2023-08-15T01:33:08.823Z,6.77
2023-08-15T01:35:40.567Z,6.23
2023-08-15T01:38:13.663Z,7.10
2023-08-15T01:40:40.951Z,6.90
2023-08-15T01:43:08.679Z,6.80
2023-08-15T01:45:35.566Z,7.17
2023-08-15T01:48:02.378Z,7.47
2023-08-15T01:50:29.060Z,6.67
2023-08-15T01:52:55.857Z,7.30
2023-08-15T01:55:22.513Z,6.50
2023-08-15T01:57:49.380Z,7.00
2023-08-15T02:00:16.321Z,7.33
2023-08-15T02:02:43.379Z,7.47
2023-08-15T02:05:10.154Z,7.53
2023-08-15T02:07:36.911Z,7.13
2023-08-15T02:10:04.062Z,6.77
2023-08-15T02:12:30.804Z,7.10
2023-08-15T02:14:57.496Z,6.73
2023-08-15T02:17:24.334Z,6.57
2023-08-15T02:19:51.062Z,7.20
2023-08-15T02:22:17.931Z,7.10
2023-08-15T02:24:44.625Z,6.90
2023-08-15T02:27:11.517Z,6.50
2023-08-15T02:29:38.214Z,8.53
2023-08-15T02:32:04.966Z,7.63
2023-08-15T02:34:31.752Z,8.43
2023-08-15T02:36:58.739Z,7.70
2023-08-15T02:39:25.529Z,7.20
2023-08-15T02:41:52.324Z,6.77
2023-08-15T02:44:19.105Z,7.57
2023-08-15T02:46:45.914Z,7.00
2023-08-15T02:49:13.139Z,6.57
2023-08-15T02:51:39.860Z,6.40
2023-08-15T02:54:06.826Z,6.67
2023-08-15T02:56:33.535Z,6.87
2023-08-15T02:59:00.210Z,8.33
2023-08-15T03:01:26.956Z,7.83
2023-08-15T03:03:53.719Z,9.57
2023-08-15T03:06:20.537Z,8.93
2023-08-15T03:08:48.628Z,8.03
2023-08-15T03:11:15.383Z,8.33
2023-08-15T03:13:42.049Z,8.20
2023-08-15T03:16:08.696Z,7.80
2023-08-15T03:18:35.601Z,8.13
2023-08-15T03:21:04.419Z,8.57
2023-08-15T03:23:31.338Z,9.30
2023-08-15T03:26:02.174Z,8.83
2023-08-15T03:28:29.596Z,9.10
2023-08-15T03:30:56.482Z,8.40
2023-08-15T03:33:24.635Z,7.97
2023-08-15T03:35:52.407Z,9.23
2023-08-15T03:38:22.655Z,9.20
2023-08-15T03:40:51.148Z,9.47
2023-08-15T03:43:17.906Z,9.70
2023-08-15T03:45:44.597Z,10.20
2023-08-15T03:48:11.250Z,10.07
2023-08-15T03:50:38.818Z,8.97
2023-08-15T03:53:06.042Z,9.07
2023-08-15T03:55:33.187Z,8.93
2023-08-15T03:57:59.865Z,8.90
2023-08-15T04:00:26.566Z,8.77
2023-08-15T04:02:53.323Z,12.13
2023-08-15T04:05:20.033Z,11.23
2023-08-15T04:07:46.849Z,11.60
2023-08-15T04:10:14.592Z,13.17
2023-08-15T04:12:41.952Z,13.17
2023-08-15T04:15:08.871Z,12.53
2023-08-15T04:17:35.636Z,12.70
2023-08-15T04:20:02.379Z,12.13
2023-08-15T04:22:29.053Z,9.93
2023-08-15T04:24:55.747Z,9.37
2023-08-15T04:27:22.898Z,9.40
2023-08-15T04:29:50.044Z,8.27
2023-08-15T04:32:16.780Z,7.87
2023-08-15T04:34:43.469Z,8.37
2023-08-15T04:37:10.363Z,8.27
2023-08-15T04:39:37.086Z,9.50
2023-08-15T04:42:03.960Z,9.43
2023-08-15T04:44:30.632Z,10.43
2023-08-15T04:46:57.350Z,10.37
2023-08-15T04:49:24.003Z,10.53
2023-08-15T04:51:50.703Z,11.10
2023-08-15T04:54:17.320Z,11.43
2023-08-15T04:56:44.000Z,11.43
2023-08-15T04:59:10.712Z,12.07
2023-08-15T05:01:37.693Z,11.43
2023-08-15T05:04:04.690Z,11.30
2023-08-15T05:06:31.589Z,10.80
2023-08-15T05:08:58.270Z,10.37
2023-08-15T05:11:25.079Z,8.63
2023-08-15T05:13:51.803Z,10.03
2023-08-15T05:16:18.533Z,9.70
2023-08-15T05:18:45.252Z,9.50
2023-08-15T05:21:11.962Z,8.77
2023-08-15T05:23:38.659Z,8.67
2023-08-15T05:26:05.381Z,9.83
2023-08-15T05:28:32.075Z,9.83
2023-08-15T05:30:58.824Z,9.70
2023-08-15T05:33:25.563Z,9.87
2023-08-15T05:35:52.210Z,10.57
2023-08-15T05:38:18.922Z,11.10
2023-08-15T05:40:45.694Z,9.30
2023-08-15T05:43:12.382Z,8.30
2023-08-15T05:45:39.082Z,8.93
2023-08-15T05:48:06.362Z,10.10
2023-08-15T05:50:33.187Z,12.48
2023-08-15T05:52:59.909Z,9.03
2023-08-15T05:55:26.647Z,8.97
2023-08-15T05:57:54.527Z,8.80
2023-08-15T06:00:23.316Z,8.43
2023-08-15T06:02:50.147Z,8.40
2023-08-15T06:05:16.953Z,8.47
2023-08-15T06:07:43.688Z,8.17
2023-08-15T06:10:10.608Z,7.13
2023-08-15T06:12:37.385Z,7.80
2023-08-15T06:15:04.368Z,7.90
2023-08-15T06:17:31.115Z,7.70
2023-08-15T06:19:57.840Z,7.63
2023-08-15T06:22:24.504Z,6.80
2023-08-15T06:24:51.414Z,7.30
2023-08-15T06:27:18.159Z,7.20
2023-08-15T06:29:44.807Z,8.10
2023-08-15T06:32:26.082Z,6.23
2023-08-15T06:34:52.813Z,6.33
2023-08-15T06:37:19.941Z,6.82
2023-08-15T06:39:46.884Z,6.72
2023-08-15T06:42:14.563Z,5.97
2023-08-15T06:44:44.686Z,6.28
2023-08-15T06:47:12.132Z,6.90
2023-08-15T06:49:38.958Z,6.50
2023-08-15T06:52:05.899Z,6.60
2023-08-15T06:54:32.677Z,6.07
2023-08-15T06:56:59.394Z,6.88
2023-08-15T06:59:26.415Z,6.93
2023-08-15T07:01:56.331Z,7.18
2023-08-15T07:04:23.124Z,7.13
2023-08-15T07:06:49.923Z,6.28
2023-08-15T07:09:16.668Z,6.63
2023-08-15T07:11:43.302Z,6.10
2023-08-15T07:14:10.042Z,6.35
2023-08-15T07:16:37.395Z,6.80
2023-08-15T07:19:05.433Z,6.78
2023-08-15T07:21:32.143Z,6.10
2023-08-15T07:23:58.935Z,6.60
2023-08-15T07:26:25.737Z,6.57
2023-08-15T07:28:52.381Z,6.60
2023-08-15T07:31:19.102Z,7.05
2023-08-15T07:33:45.840Z,7.20
2023-08-15T07:36:12.554Z,7.75
2023-08-15T07:38:39.273Z,6.68
2023-08-15T07:41:06.224Z,6.32
2023-08-15T07:43:32.994Z,7.82
2023-08-15T07:45:59.814Z,6.28
2023-08-15T07:48:26.586Z,6.85
2023-08-15T07:50:53.280Z,6.68
2023-08-15T07:53:19.969Z,6.43
2023-08-15T07:55:46.624Z,6.45
2023-08-15T07:58:13.547Z,6.30
2023-08-15T08:00:40.775Z,6.88
2023-08-15T08:03:09.209Z,6.95
2023-08-15T08:05:36.810Z,6.45
2023-08-15T08:08:03.734Z,6.95
2023-08-15T08:10:30.566Z,6.38
2023-08-15T08:13:00.117Z,6.43
2023-08-15T08:15:30.280Z,6.47
2023-08-15T08:17:57.023Z,6.30
2023-08-15T08:20:23.831Z,6.45
2023-08-15T08:22:50.599Z,8.57
2023-08-15T08:25:22.747Z,6.72
2023-08-15T08:27:50.122Z,7.22
2023-08-15T08:30:21.758Z,6.93
2023-08-15T08:32:48.777Z,6.65
2023-08-15T08:35:18.735Z,6.32
2023-08-15T08:37:46.702Z,6.50
2023-08-15T08:40:14.039Z,6.70
2023-08-15T08:42:44.348Z,6.53
2023-08-15T08:45:11.683Z,5.75
2023-08-15T08:47:40.707Z,6.53
2023-08-15T08:50:12.103Z,6.30
2023-08-15T08:52:43.417Z,6.88
2023-08-15T08:55:10.609Z,6.72
2023-08-15T08:57:38.346Z,5.95
2023-08-15T09:00:10.769Z,6.38
2023-08-15T09:02:37.696Z,6.30
2023-08-15T09:05:06.679Z,6.97
2023-08-15T09:07:34.411Z,6.80
2023-08-15T09:10:01.358Z,6.65
2023-08-15T09:12:39.752Z,7.28
2023-08-15T09:15:11.785Z,6.30
2023-08-15T09:17:39.177Z,6.13
2023-08-15T09:20:15.141Z,6.97
2023-08-15T09:22:47.016Z,6.10
2023-08-15T09:25:21.425Z,6.25
2023-08-15T09:27:48.554Z,6.47
2023-08-15T09:30:18.219Z,6.22
2023-08-15T09:32:46.736Z,6.45
2023-08-15T09:35:15.169Z,5.97
2023-08-15T09:37:43.315Z,6.60
2023-08-15T09:40:17.484Z,6.80
2023-08-15T09:42:45.480Z,7.47
2023-08-15T09:45:14.090Z,6.65
2023-08-15T09:47:41.678Z,7.25
2023-08-15T09:50:10.794Z,6.45
2023-08-15T09:52:41.201Z,6.22
2023-08-15T09:55:12.721Z,5.85
2023-08-15T09:57:40.521Z,6.47
2023-08-15T10:00:17.368Z,6.40
2023-08-15T10:02:53.505Z,6.50
2023-08-15T10:05:22.468Z,6.10
2023-08-15T10:07:50.584Z,6.45
2023-08-15T10:10:18.311Z,6.85
2023-08-15T10:12:46.815Z,6.63
2023-08-15T10:15:13.991Z,6.40
2023-08-15T10:17:40.825Z,6.22
2023-08-15T10:20:12.138Z,7.22
2023-08-15T10:22:42.105Z,7.13
2023-08-15T10:25:24.168Z,7.22
2023-08-15T10:27:53.193Z,6.68
2023-08-15T10:30:30.410Z,7.22
2023-08-15T10:33:01.133Z,7.18
2023-08-15T10:35:32.140Z,6.63
2023-08-15T10:37:59.497Z,6.90
2023-08-15T10:40:40.105Z,6.20
2023-08-15T10:43:08.970Z,6.13
2023-08-15T10:45:54.277Z,6.00
2023-08-15T10:49:01.869Z,7.30
2023-08-15T10:51:40.772Z,7.03
2023-08-15T10:54:12.181Z,7.28
2023-08-15T10:56:41.007Z,5.97
2023-08-15T10:59:15.509Z,7.07
2023-08-15T11:01:44.894Z,5.88
2023-08-15T11:04:15.173Z,6.45
2023-08-15T11:06:47.789Z,6.63
2023-08-15T11:09:15.414Z,6.22
2023-08-15T11:11:42.463Z,6.20
2023-08-15T11:14:17.809Z,6.63
2023-08-15T11:16:46.252Z,6.28
2023-08-15T11:19:15.822Z,6.75
2023-08-15T11:21:43.106Z,6.62
2023-08-15T11:24:11.378Z,6.15
2023-08-15T11:26:38.089Z,7.07
2023-08-15T11:29:04.942Z,6.20
2023-08-15T11:31:31.827Z,7.15
2023-08-15T11:34:01.649Z,6.25
2023-08-15T11:36:28.610Z,6.70
2023-08-15T11:38:55.441Z,6.15
2023-08-15T11:41:22.196Z,5.55
2023-08-15T11:43:49.163Z,5.90
2023-08-15T11:46:15.999Z,5.65
2023-08-15T11:48:46.438Z,5.95
2023-08-15T11:51:20.347Z,6.32
2023-08-15T11:53:57.790Z,6.20
2023-08-15T11:56:24.669Z,6.15
2023-08-15T11:58:51.431Z,6.35
2023-08-15T12:01:18.175Z,6.10
2023-08-15T12:03:45.179Z,6.18
2023-08-15T12:06:15.195Z,6.07
2023-08-15T12:11:28.530Z,6.97
2023-08-15T12:13:55.345Z,5.82
2023-08-15T12:16:22.081Z,6.15
2023-08-15T12:18:48.982Z,5.80
2023-08-15T12:21:16.436Z,5.85
2023-08-15T12:23:43.293Z,5.90
2023-08-15T12:26:10.078Z,7.00
2023-08-15T12:28:37.152Z,5.63
2023-08-15T12:31:04.193Z,5.97
2023-08-15T12:36:07.109Z,5.53
2023-08-15T12:38:33.880Z,5.47
2023-08-15T12:41:00.732Z,5.57
2023-08-15T12:43:27.711Z,5.80
2023-08-15T12:45:55.917Z,6.35
2023-08-15T12:48:22.797Z,6.28
2023-08-15T12:50:49.499Z,6.03
2023-08-15T12:53:16.294Z,6.28
2023-08-15T12:55:43.074Z,6.13
2023-08-15T12:58:10.019Z,6.55
2023-08-15T13:00:37.243Z,6.35
2023-08-15T13:03:06.130Z,6.35
2023-08-15T13:05:32.927Z,6.13
2023-08-15T13:07:59.600Z,5.88
2023-08-15T13:10:26.341Z,6.05
2023-08-15T13:12:53.098Z,6.43
2023-08-15T13:15:19.761Z,6.30
2023-08-15T13:17:46.778Z,5.60
2023-08-15T13:20:13.969Z,6.57
2023-08-15T13:22:40.658Z,5.53
2023-08-15T13:25:08.229Z,5.78
2023-08-15T13:27:34.924Z,5.85
2023-08-15T13:30:01.530Z,5.57
2023-08-15T13:32:28.233Z,5.90
2023-08-15T13:34:54.960Z,5.50
2023-08-15T13:37:21.652Z,5.40
2023-08-15T13:39:48.408Z,5.90
2023-08-15T13:42:34.177Z,5.55
2023-08-15T13:45:04.407Z,5.28
2023-08-15T13:47:32.684Z,5.30
2023-08-15T13:49:59.362Z,5.22
2023-08-15T13:52:26.108Z,5.40
2023-08-15T13:54:52.780Z,5.25
2023-08-15T13:57:19.448Z,5.15
2023-08-15T13:59:46.321Z,5.55
2023-08-15T14:02:13.024Z,5.28
2023-08-15T14:04:40.303Z,5.47
2023-08-15T14:07:07.021Z,5.88
2023-08-15T14:09:33.904Z,5.20
2023-08-15T14:12:00.592Z,5.05
2023-08-15T14:14:27.235Z,5.43
2023-08-15T14:16:53.941Z,5.20
2023-08-15T14:19:20.644Z,4.68
2023-08-15T14:21:47.277Z,5.43
2023-08-15T14:24:14.040Z,5.22
2023-08-15T14:26:40.707Z,5.07
2023-08-15T14:29:07.383Z,6.25
2023-08-15T14:31:34.711Z,5.30
2023-08-15T14:34:01.439Z,5.78
2023-08-15T14:36:28.223Z,5.07
2023-08-15T14:38:54.917Z,5.57
2023-08-15T14:41:21.609Z,5.88
2023-08-15T14:43:48.353Z,5.63
2023-08-15T14:46:15.040Z,5.40
2023-08-15T14:48:41.737Z,5.07
2023-08-15T14:51:08.604Z,5.30
2023-08-15T14:53:35.354Z,4.85
2023-08-15T14:56:02.290Z,5.85
2023-08-15T14:58:28.989Z,5.72
2023-08-15T15:00:55.689Z,5.78
2023-08-15T15:03:22.505Z,5.90
2023-08-15T15:05:49.253Z,6.18
2023-08-15T15:08:16.023Z,6.28
2023-08-15T15:10:42.799Z,5.85
2023-08-15T15:13:09.459Z,6.00
2023-08-15T15:15:53.093Z,5.80
2023-08-15T15:18:20.801Z,5.80
2023-08-15T15:20:47.855Z,5.50
2023-08-15T15:23:14.694Z,5.85
2023-08-15T15:25:47.875Z,5.80
2023-08-15T15:28:14.852Z,5.60
2023-08-15T15:30:41.603Z,5.63
2023-08-15T15:33:08.258Z,6.20
2023-08-15T15:35:35.012Z,6.60
2023-08-15T15:38:01.807Z,6.50
2023-08-15T15:40:28.531Z,6.88
2023-08-15T15:42:55.266Z,6.28
2023-08-15T15:45:21.962Z,6.63
2023-08-15T15:47:48.823Z,7.10
2023-08-15T15:50:20.778Z,6.57
2023-08-15T15:52:48.475Z,7.32
2023-08-15T15:55:20.296Z,7.10
2023-08-15T15:57:47.075Z,7.43
2023-08-15T16:00:17.132Z,7.45
2023-08-15T16:02:44.542Z,8.18
2023-08-15T16:05:14.999Z,8.38
2023-08-15T16:07:41.896Z,7.20
2023-08-15T16:10:10.587Z,8.02
2023-08-15T16:12:37.481Z,7.78
2023-08-15T16:15:04.483Z,7.03
2023-08-15T16:17:31.227Z,7.72
2023-08-15T16:19:57.896Z,7.93
2023-08-15T16:22:25.265Z,8.38
2023-08-15T16:24:52.518Z,7.20
2023-08-15T16:27:20.833Z,8.20
2023-08-15T16:29:48.276Z,8.05
2023-08-15T16:32:17.143Z,7.93
2023-08-15T16:34:44.234Z,7.28
2023-08-15T16:37:10.924Z,7.97
2023-08-15T16:39:37.610Z,8.77
2023-08-15T16:42:04.633Z,8.30
2023-08-15T16:44:31.406Z,8.43
2023-08-15T16:46:58.151Z,8.40
2023-08-15T16:49:25.291Z,7.78
2023-08-15T16:51:52.005Z,7.47
2023-08-15T16:54:18.860Z,8.57
2023-08-15T16:56:45.633Z,8.50
2023-08-15T16:59:12.391Z,8.45
2023-08-15T17:01:39.136Z,8.18
2023-08-15T17:04:06.144Z,9.02
2023-08-15T17:06:33.015Z,8.55
2023-08-15T17:08:59.863Z,8.55
2023-08-15T17:11:26.590Z,8.57
2023-08-15T17:13:53.330Z,8.80
2023-08-15T17:16:20.110Z,8.95
2023-08-15T17:18:46.820Z,8.05
2023-08-15T17:21:13.538Z,7.97
2023-08-15T17:23:40.256Z,8.75
2023-08-15T17:26:07.033Z,8.82
2023-08-15T17:28:33.665Z,9.18
2023-08-15T17:31:00.993Z,8.95
2023-08-15T17:33:28.054Z,9.00
2023-08-15T17:35:54.782Z,8.60
2023-08-15T17:38:21.469Z,8.85
2023-08-15T17:40:48.313Z,8.07
2023-08-15T17:43:15.029Z,8.82
2023-08-15T17:45:42.145Z,8.68
2023-08-15T17:48:09.960Z,7.75
2023-08-15T17:50:36.905Z,8.85
2023-08-15T17:53:03.784Z,7.78
2023-08-15T17:55:30.504Z,7.78
2023-08-15T17:57:57.293Z,7.75
2023-08-15T18:00:24.212Z,7.90
2023-08-15T18:02:50.951Z,7.68
2023-08-15T18:05:17.800Z,8.02
2023-08-15T18:07:44.680Z,8.10
2023-08-15T18:10:11.479Z,8.30
2023-08-15T18:12:38.164Z,8.05
2023-08-15T18:15:05.610Z,7.03
2023-08-15T18:17:32.323Z,7.22
2023-08-15T18:20:01.666Z,7.93
2023-08-15T18:22:28.477Z,6.85
2023-08-15T18:24:55.343Z,7.07
2023-08-15T18:27:22.078Z,7.53
2023-08-15T18:29:48.939Z,7.30
2023-08-15T18:32:15.639Z,7.72
2023-08-15T18:34:42.356Z,6.93
2023-08-15T18:37:09.006Z,7.35
2023-08-15T18:39:35.734Z,8.00
2023-08-15T18:42:02.836Z,8.73
2023-08-15T18:44:29.581Z,8.48
2023-08-15T18:46:56.834Z,8.75
2023-08-15T18:49:23.815Z,8.77
2023-08-15T18:51:50.541Z,8.20
2023-08-15T18:54:17.240Z,6.80
2023-08-15T18:56:43.944Z,7.20
2023-08-15T18:59:10.654Z,7.00
2023-08-15T19:01:37.349Z,7.03
2023-08-15T19:04:04.750Z,8.27
2023-08-15T19:06:31.512Z,7.20
2023-08-15T19:08:58.260Z,6.68
2023-08-15T19:11:24.982Z,6.75
2023-08-15T19:13:51.669Z,7.22
2023-08-15T19:16:18.365Z,7.20
2023-08-15T19:18:45.034Z,6.80
2023-08-15T19:21:12.943Z,6.95
2023-08-15T19:23:39.735Z,6.47
2023-08-15T19:26:06.615Z,7.28
2023-08-15T19:28:33.366Z,6.70
2023-08-15T19:31:00.117Z,7.03
2023-08-15T19:33:26.928Z,7.22
2023-08-15T19:35:53.714Z,6.97
2023-08-15T19:38:20.460Z,6.95
2023-08-15T19:40:47.266Z,6.47
2023-08-15T19:43:13.929Z,7.07
2023-08-15T19:45:40.716Z,7.13
2023-08-15T19:48:07.707Z,7.15
2023-08-15T19:50:35.727Z,7.18
2023-08-15T19:53:02.445Z,7.25
2023-08-15T19:55:31.618Z,6.93
2023-08-15T19:57:59.950Z,7.00
2023-08-15T20:00:26.657Z,6.70
2023-08-15T20:02:53.419Z,7.63
2023-08-15T20:05:20.149Z,7.05
2023-08-15T20:07:47.097Z,6.63
2023-08-15T20:10:15.312Z,7.15
2023-08-15T20:12:41.992Z,6.82
2023-08-15T20:15:09.324Z,7.47
2023-08-15T20:17:36.107Z,6.40
2023-08-15T20:20:03.420Z,6.85
2023-08-15T20:22:30.033Z,7.13
2023-08-15T20:24:57.889Z,7.07
2023-08-15T20:27:24.693Z,6.82
2023-08-15T20:29:54.314Z,6.45
2023-08-15T20:32:21.230Z,7.28
2023-08-15T20:34:48.251Z,7.50
2023-08-15T20:37:15.048Z,7.85
2023-08-15T20:39:41.806Z,6.82
2023-08-15T20:42:10.002Z,7.57
2023-08-15T20:44:36.732Z,7.43
2023-08-15T20:47:03.765Z,8.07
2023-08-15T20:49:30.516Z,7.40
2023-08-15T20:51:57.611Z,8.18
2023-08-15T20:54:24.377Z,7.45
2023-08-15T20:56:51.116Z,8.15
2023-08-15T20:59:17.793Z,7.90
2023-08-15T21:01:44.489Z,7.88
2023-08-15T21:04:11.287Z,8.27
2023-08-15T21:06:38.070Z,7.95
2023-08-15T21:09:04.996Z,6.93
2023-08-15T21:11:31.797Z,7.07
2023-08-15T21:13:59.027Z,7.00
2023-08-15T21:16:25.843Z,7.35
2023-08-15T21:18:52.631Z,7.80
2023-08-15T21:21:19.316Z,7.72
2023-08-15T21:23:45.954Z,7.55
2023-08-15T21:26:13.422Z,8.60
2023-08-15T21:28:40.112Z,7.93
2023-08-15T21:31:06.938Z,8.98
2023-08-15T21:33:34.252Z,9.20
2023-08-15T21:36:01.485Z,8.35
2023-08-15T21:38:28.178Z,7.80
2023-08-15T21:40:54.833Z,7.85
2023-08-15T21:43:21.716Z,7.78
2023-08-15T21:45:49.162Z,8.07
2023-08-15T21:48:16.109Z,8.30
2023-08-15T21:50:42.739Z,8.97
2023-08-15T21:53:09.511Z,8.27
2023-08-15T21:55:36.201Z,8.50
2023-08-15T21:58:02.926Z,8.17
2023-08-15T22:00:29.738Z,8.85
2023-08-15T22:02:59.536Z,8.37
2023-08-15T22:05:26.682Z,8.07
2023-08-15T22:07:54.067Z,8.33
2023-08-15T22:10:23.798Z,8.63
2023-08-15T22:12:51.162Z,8.93
2023-08-15T22:15:18.788Z,8.43
2023-08-15T22:17:50.528Z,8.67
2023-08-15T22:20:21.572Z,8.70
2023-08-15T22:22:48.522Z,8.67
2023-08-15T22:25:17.520Z,8.40
2023-08-15T22:27:45.861Z,8.50
2023-08-15T22:30:13.660Z,8.40
2023-08-15T22:32:40.642Z,8.73
2023-08-15T22:35:07.960Z,7.93
2023-08-15T22:37:34.731Z,7.88
2023-08-15T22:40:04.448Z,8.40
2023-08-15T22:42:32.006Z,8.27
2023-08-15T22:44:59.029Z,8.27
2023-08-15T22:47:25.866Z,8.13
2023-08-15T22:49:52.648Z,8.50
2023-08-15T22:52:19.519Z,8.97
2023-08-15T22:54:46.269Z,7.97
2023-08-15T22:57:13.165Z,8.27
2023-08-15T22:59:39.921Z,8.37
2023-08-15T23:02:06.707Z,8.70
2023-08-15T23:04:33.551Z,8.13
2023-08-15T23:07:00.424Z,8.50
2023-08-15T23:09:27.082Z,8.03
2023-08-15T23:11:54.043Z,8.23
2023-08-15T23:14:20.746Z,8.17
2023-08-15T23:16:47.493Z,9.30
2023-08-15T23:19:14.185Z,9.13
2023-08-15T23:21:42.871Z,8.87
2023-08-15T23:24:10.001Z,9.30
2023-08-15T23:26:37.259Z,8.20
2023-08-15T23:29:04.667Z,8.63
2023-08-15T23:31:33.029Z,7.57
2023-08-15T23:33:59.847Z,7.97
2023-08-15T23:36:26.679Z,8.60
2023-08-15T23:38:53.617Z,7.97
2023-08-15T23:41:20.326Z,7.70
2023-08-15T23:43:47.093Z,8.70
2023-08-15T23:46:13.868Z,7.97
2023-08-15T23:48:40.573Z,7.63
2023-08-15T23:51:07.298Z,8.43
2023-08-15T23:53:34.246Z,9.07
2023-08-15T23:56:01.003Z,9.57
2023-08-15T23:58:27.886Z,9.57
